This is the latest recevied weather packets stored in our database for station/object N7CW. If no packets are shown the sender has not sent any weather packets the latest 10 day(s).
| Time | Temp. | Humidity | Pressure | Rain* | Wind** | Luminosity | Snow |
|---|---|---|---|---|---|---|---|
| 1777615677 | 11.67° C | 30% | 1013.6 hPa | 0 mm | - | 0 W/m² | - |
| 1777615375 | 11.67° C | 29% | 1013.6 hPa | 0 mm | - | 0 W/m² | - |
| 1777615074 | 12.22° C | 26% | 1013.5 hPa | 0 mm | - | 0 W/m² | - |
| 1777614770 | 12.22° C | 28% | 1013.6 hPa | 0 mm | - | 0 W/m² | - |
| 1777614470 | 12.22° C | 27% | 1013.5 hPa | 0 mm | - | 0 W/m² | - |
| 1777614167 | 12.78° C | 27% | 1013.5 hPa | 0 mm | - | 0 W/m² | - |
| 1777613861 | 12.78° C | 27% | 1013.5 hPa | 0 mm | - | 0 W/m² | - |
| 1777613559 | 12.78° C | 27% | 1013.5 hPa | 0 mm | - | 0 W/m² | - |
| 1777613255 | 12.78° C | 27% | 1013.6 hPa | 0 mm | - | 0 W/m² | - |
| 1777612952 | 12.78° C | 28% | 1013.4 hPa | 0 mm | - | 0 W/m² | - |
| 1777612648 | 12.78° C | 29% | 1013.2 hPa | 0 mm | - | 0 W/m² | - |
| 1777612344 | 12.78° C | 28% | 1013.4 hPa | 0 mm | - | 0 W/m² | - |
| 1777612039 | 12.78° C | 28% | 1013.4 hPa | 0 mm | - | 0 W/m² | - |
| 1777611734 | 12.22° C | 29% | 1013.1 hPa | 0 mm | - | 0 W/m² | - |
| 1777611431 | 12.78° C | 29% | 1013.3 hPa | 0 mm | - | 0 W/m² | - |
| 1777611128 | 13.89° C | 28% | 1013.1 hPa | 0 mm | - | 0 W/m² | - |
| 1777610823 | 13.89° C | 28% | 1013.3 hPa | 0 mm | - | 0 W/m² | - |
| 1777610519 | 12.22° C | 29% | 1013.4 hPa | 0 mm | - | 0 W/m² | - |
| 1777610214 | 15° C | 27% | 1013.1 hPa | 0 mm | - | 0 W/m² | - |
| 1777609911 | 15° C | 25% | 1012.7 hPa | 0 mm | - | 0 W/m² | - |
| 1777609607 | 15° C | 25% | 1012.6 hPa | 0 mm | - | 0 W/m² | - |
| 1777609304 | 15° C | 25% | 1012.7 hPa | 0 mm | - | 0 W/m² | - |
| 1777609002 | 15.56° C | 25% | 1012.7 hPa | 0 mm | - | 0 W/m² | - |
| 1777608699 | 15.56° C | 25% | 1012.7 hPa | 0 mm | - | 0 W/m² | - |
| 1777608396 | 15.56° C | 25% | 1012.6 hPa | 0 mm | - | 0 W/m² | - |
* Rain latest hour (hover to see other rain measurements)
** Current wind speed in m/s (hover to see current wind gust speed)